Time;durP1;ratioP1;P1;durP2;ratioP2;P2;SDS_P1;SDS_P2;PMS_P1;PMS_P2;Temp;Humidity;BMP_temperature;BMP_pressure;BME280_temperature;BME280_humidity;BME280_pressure;Samples;Min_cycle;Max_cycle;Signal;HPM_P1;HPM_P2
2023/07/15 00:00:54;;;;;;;0.47;0.47;;;19.80;99.90;;;;;;5093888;28;20032;-73
2023/07/15 00:03:21;;;;;;;0.30;0.30;;;19.80;99.90;;;;;;5093964;28;20046;-74
2023/07/15 00:05:48;;;;;;;0.40;0.40;;;19.70;99.90;;;;;;5093905;28;20122;-74
2023/07/15 00:08:14;;;;;;;0.40;0.40;;;19.70;99.90;;;;;;5093765;28;20036;-75
2023/07/15 00:10:45;;;;;;;0.30;0.30;;;19.70;99.90;;;;;;5093673;28;20047;-75
2023/07/15 00:13:15;;;;;;;0.30;0.30;;;19.60;99.90;;;;;;5093681;28;20035;-74
2023/07/15 00:15:43;;;;;;;0.30;0.30;;;19.60;99.90;;;;;;5093798;28;20036;-72
2023/07/15 00:18:14;;;;;;;0.30;0.30;;;19.60;99.90;;;;;;5093618;28;20391;-74
2023/07/15 00:20:41;;;;;;;0.40;0.40;;;19.60;99.90;;;;;;5093659;28;20470;-75
2023/07/15 00:23:22;;;;;;;0.30;0.30;;;19.60;99.90;;;;;;5093427;28;20036;-75
2023/07/15 00:25:50;;;;;;;0.30;0.30;;;19.60;99.90;;;;;;5093572;28;20044;-75
2023/07/15 00:28:19;;;;;;;0.63;0.60;;;19.50;99.90;;;;;;5093892;28;20080;-75
2023/07/15 00:30:45;;;;;;;0.40;0.40;;;19.50;99.90;;;;;;5097152;28;20173;-75
2023/07/15 00:33:14;;;;;;;0.40;0.40;;;19.50;99.90;;;;;;5097395;28;20047;-74
2023/07/15 00:35:40;;;;;;;0.30;0.30;;;19.50;99.90;;;;;;5097368;28;20525;-74
2023/07/15 00:38:06;;;;;;;0.30;0.30;;;19.60;99.90;;;;;;5097738;28;20460;-72
2023/07/15 00:40:38;;;;;;;0.33;0.33;;;19.60;99.90;;;;;;5097929;28;20047;-71
2023/07/15 00:43:41;;;;;;;0.30;0.30;;;19.60;99.90;;;;;;5097573;28;20066;-75
2023/07/15 00:46:18;;;;;;;0.30;0.30;;;19.60;99.90;;;;;;5097415;28;20494;-75
2023/07/15 00:49:02;;;;;;;;;;;19.60;99.90;;;;;;5098292;28;20421;-74
2023/07/15 00:51:31;;;;;;;0.63;0.38;;;19.60;99.90;;;;;;5097154;28;19968;-72
2023/07/15 00:53:58;;;;;;;0.55;0.55;;;19.60;99.90;;;;;;5097444;28;20040;-72
2023/07/15 00:56:25;;;;;;;0.88;0.68;;;19.60;99.90;;;;;;5097192;28;20043;-72
2023/07/15 00:58:52;;;;;;;0.47;0.45;;;19.60;99.90;;;;;;5097142;28;20153;-74
2023/07/15 01:01:18;;;;;;;0.30;0.30;;;19.60;99.90;;;;;;5097071;28;20048;-73
2023/07/15 01:03:45;;;;;;;0.30;0.30;;;19.50;99.90;;;;;;5096955;28;20062;-72
2023/07/15 01:06:11;;;;;;;0.40;0.40;;;19.60;99.90;;;;;;5097078;28;20055;-73
2023/07/15 01:08:37;;;;;;;0.30;0.30;;;19.60;99.90;;;;;;5097037;28;20107;-74
2023/07/15 01:11:03;;;;;;;1.73;0.40;;;19.60;99.90;;;;;;5096920;28;20040;-74
2023/07/15 01:13:29;;;;;;;0.80;0.80;;;19.50;99.90;;;;;;5097435;28;20034;-75
2023/07/15 01:15:55;;;;;;;0.30;0.30;;;19.60;99.90;;;;;;5097407;28;20039;-75
2023/07/15 01:18:20;;;;;;;0.47;0.47;;;19.60;99.90;;;;;;5096956;28;20563;-75
2023/07/15 01:20:47;;;;;;;0.20;0.20;;;19.60;99.90;;;;;;5096859;28;20066;-72
2023/07/15 01:23:13;;;;;;;0.30;0.30;;;19.60;99.90;;;;;;5096602;28;20464;-72
2023/07/15 01:25:39;;;;;;;0.30;0.30;;;19.60;99.90;;;;;;5096459;28;20036;-73
2023/07/15 01:28:04;;;;;;;0.40;0.40;;;19.60;99.90;;;;;;5096703;28;20517;-75
2023/07/15 01:30:30;;;;;;;0.20;0.20;;;19.60;99.90;;;;;;5096601;28;20051;-73
2023/07/15 01:32:56;;;;;;;0.50;0.50;;;19.60;99.90;;;;;;5096619;28;20119;-74
2023/07/15 01:35:22;;;;;;;0.40;0.40;;;19.60;99.90;;;;;;5096482;28;20036;-74
2023/07/15 01:37:48;;;;;;;0.30;0.30;;;19.60;99.90;;;;;;5096392;28;20119;-74
2023/07/15 01:40:14;;;;;;;0.30;0.30;;;19.60;99.90;;;;;;5095817;28;20127;-73
2023/07/15 01:42:42;;;;;;;0.57;0.57;;;19.60;99.90;;;;;;5096810;28;20040;-74
2023/07/15 01:45:09;;;;;;;0.20;0.20;;;19.60;99.90;;;;;;5096230;28;20036;-72
2023/07/15 01:47:37;;;;;;;0.45;0.45;;;19.60;99.90;;;;;;5096311;28;20040;-74
2023/07/15 01:50:06;;;;;;;0.30;0.30;;;19.60;99.90;;;;;;5096148;28;20097;-72
2023/07/15 01:52:32;;;;;;;0.32;0.32;;;19.70;99.90;;;;;;5095984;28;20451;-72
2023/07/15 01:54:57;;;;;;;0.40;0.40;;;19.70;99.90;;;;;;5096033;28;20071;-75
2023/07/15 01:57:26;;;;;;;0.33;0.30;;;19.70;99.90;;;;;;5096121;28;20036;-74
2023/07/15 01:59:57;;;;;;;0.30;0.30;;;19.70;99.90;;;;;;5095966;28;20079;-74
2023/07/15 02:02:26;;;;;;;0.40;0.40;;;19.70;99.90;;;;;;5095948;28;20124;-75
2023/07/15 02:04:51;;;;;;;0.30;0.30;;;19.70;99.90;;;;;;5095964;28;20078;-74
2023/07/15 02:07:17;;;;;;;0.20;0.20;;;19.70;99.90;;;;;;5096006;28;20047;-72
2023/07/15 02:09:43;;;;;;;0.32;0.32;;;19.70;99.90;;;;;;5095798;28;20043;-74
2023/07/15 02:12:09;;;;;;;0.40;0.37;;;19.70;99.90;;;;;;5095822;28;20031;-74
2023/07/15 02:14:38;;;;;;;1.93;0.40;;;19.60;99.90;;;;;;5095786;28;20051;-74
2023/07/15 02:17:04;;;;;;;0.35;0.35;;;19.50;99.90;;;;;;5095791;28;20495;-73
2023/07/15 02:19:33;;;;;;;1.08;0.40;;;19.60;99.90;;;;;;5095642;28;20040;-75
2023/07/15 02:21:59;;;;;;;0.30;0.30;;;19.50;99.90;;;;;;5095547;28;20036;-74
2023/07/15 02:24:29;;;;;;;0.22;0.22;;;19.50;99.90;;;;;;5095578;28;20048;-75
2023/07/15 02:26:54;;;;;;;0.30;0.30;;;19.50;99.90;;;;;;5095467;28;20047;-74
2023/07/15 02:29:20;;;;;;;0.20;0.20;;;19.50;99.90;;;;;;5094255;28;20119;-74
2023/07/15 02:31:45;;;;;;;0.37;0.37;;;19.50;99.90;;;;;;5095289;28;20036;-72
2023/07/15 02:34:13;;;;;;;0.20;0.20;;;19.50;99.90;;;;;;5095316;28;20036;-73
2023/07/15 02:36:38;;;;;;;0.30;0.30;;;19.50;99.90;;;;;;5095354;28;20080;-73
2023/07/15 02:39:04;;;;;;;0.30;0.30;;;19.50;99.90;;;;;;5095279;28;20055;-75
2023/07/15 02:41:32;;;;;;;0.30;0.30;;;19.50;99.90;;;;;;5095509;28;20531;-76
2023/07/15 02:43:58;;;;;;;0.35;0.35;;;19.50;99.90;;;;;;5094943;28;20110;-74
2023/07/15 02:46:24;;;;;;;0.35;0.30;;;19.50;99.90;;;;;;5095302;28;20135;-73
2023/07/15 02:48:49;;;;;;;0.55;0.55;;;19.50;99.90;;;;;;5095365;28;20051;-73
2023/07/15 02:51:15;;;;;;;0.40;0.40;;;19.50;99.90;;;;;;5093209;28;20040;-72
2023/07/15 02:53:43;;;;;;;0.30;0.30;;;19.50;99.90;;;;;;5094490;28;20044;-73
2023/07/15 02:56:08;;;;;;;0.38;0.38;;;19.40;99.90;;;;;;5094820;28;20036;-73
2023/07/15 02:58:34;;;;;;;0.20;0.20;;;19.40;99.90;;;;;;5095207;28;20044;-73
2023/07/15 03:00:59;;;;;;;0.40;0.40;;;19.40;99.90;;;;;;5094897;28;20043;-73
2023/07/15 03:03:25;;;;;;;0.30;0.30;;;19.40;99.90;;;;;;5094705;28;20046;-73
2023/07/15 03:05:51;;;;;;;0.47;0.40;;;19.40;99.90;;;;;;5094793;28;20130;-73
2023/07/15 03:08:17;;;;;;;0.30;0.30;;;19.30;99.90;;;;;;5094746;28;20062;-72
2023/07/15 03:10:44;;;;;;;0.30;0.30;;;19.30;99.90;;;;;;5095130;28;20431;-72
2023/07/15 03:13:10;;;;;;;0.30;0.30;;;19.30;99.90;;;;;;5094968;28;20043;-72
2023/07/15 03:15:35;;;;;;;0.33;0.33;;;19.30;99.90;;;;;;5094653;28;20115;-73
2023/07/15 03:18:02;;;;;;;0.40;0.40;;;19.20;99.90;;;;;;5094463;28;20044;-72
2023/07/15 03:20:28;;;;;;;0.20;0.20;;;19.20;99.90;;;;;;5094518;28;20093;-73
2023/07/15 03:22:54;;;;;;;0.38;0.38;;;19.10;99.90;;;;;;5094331;28;20031;-73
2023/07/15 03:25:20;;;;;;;0.27;0.27;;;19.10;99.90;;;;;;5094276;28;20096;-72
2023/07/15 03:27:47;;;;;;;0.40;0.40;;;19.10;99.90;;;;;;5094765;28;20044;-73
2023/07/15 03:30:13;;;;;;;;;;;19.10;99.90;;;;;;5094701;28;20039;-73
2023/07/15 03:32:40;;;;;;;0.30;0.30;;;19.10;99.90;;;;;;5094267;28;19916;-73
2023/07/15 03:35:08;;;;;;;;;;;19.00;99.90;;;;;;5094376;28;20036;-73
2023/07/15 03:37:34;;;;;;;0.20;0.20;;;18.90;99.90;;;;;;5093858;28;19916;-73
2023/07/15 03:40:00;;;;;;;0.28;0.28;;;18.90;99.90;;;;;;5094839;28;20047;-73
2023/07/15 03:42:27;;;;;;;0.20;0.20;;;18.90;99.90;;;;;;5094005;28;20480;-72
2023/07/15 03:44:53;;;;;;;;;;;18.80;99.90;;;;;;5094491;28;20028;-73
2023/07/15 03:47:19;;;;;;;0.30;0.30;;;18.80;99.90;;;;;;5088106;28;19916;-73
2023/07/15 03:49:45;;;;;;;0.50;0.50;;;18.70;99.90;;;;;;5073037;28;20105;-73
2023/07/15 03:52:11;;;;;;;0.30;0.30;;;18.70;99.90;;;;;;5073704;28;20032;-73
2023/07/15 03:54:37;;;;;;;0.30;0.30;;;18.70;99.90;;;;;;5073911;28;20036;-73
2023/07/15 03:57:02;;;;;;;0.30;0.30;;;18.60;99.90;;;;;;5073711;28;20117;-72
2023/07/15 03:59:29;;;;;;;0.20;0.20;;;18.70;99.90;;;;;;5074011;28;20048;-73
2023/07/15 04:01:55;;;;;;;0.30;0.30;;;18.70;99.90;;;;;;5073342;28;20515;-73
2023/07/15 04:04:21;;;;;;;0.30;0.30;;;18.70;99.90;;;;;;5073528;28;20036;-72
2023/07/15 04:06:47;;;;;;;;;;;18.70;99.90;;;;;;5073914;28;20052;-73
2023/07/15 04:09:13;;;;;;;0.30;0.30;;;18.70;99.90;;;;;;5074031;28;19917;-73
2023/07/15 04:11:39;;;;;;;0.30;0.30;;;18.70;99.90;;;;;;5073608;28;20052;-72
2023/07/15 04:14:06;;;;;;;0.30;0.30;;;18.70;99.90;;;;;;5072414;28;20041;-72
2023/07/15 04:16:31;;;;;;;0.22;0.22;;;18.70;99.90;;;;;;5073191;28;20055;-73
2023/07/15 04:18:57;;;;;;;0.30;0.30;;;18.70;99.90;;;;;;5073506;28;20048;-72
2023/07/15 04:21:23;;;;;;;0.20;0.20;;;18.70;99.90;;;;;;5073382;28;20379;-73
2023/07/15 04:23:48;;;;;;;0.87;0.87;;;18.70;99.90;;;;;;5073930;28;20037;-72
2023/07/15 04:26:20;;;;;;;0.20;0.20;;;18.80;99.90;;;;;;5073592;28;20040;-73
2023/07/15 04:28:46;;;;;;;0.30;0.30;;;18.80;99.90;;;;;;5073413;28;20044;-72
2023/07/15 04:31:12;;;;;;;0.30;0.30;;;18.80;99.90;;;;;;5073203;28;20036;-73
2023/07/15 04:33:38;;;;;;;0.50;0.40;;;18.80;99.90;;;;;;5073201;28;20047;-73
2023/07/15 04:36:04;;;;;;;0.30;0.30;;;18.80;99.90;;;;;;5073285;28;20477;-73
2023/07/15 04:38:29;;;;;;;0.53;0.53;;;18.90;99.90;;;;;;5073267;28;20045;-73
2023/07/15 04:40:55;;;;;;;0.23;0.23;;;18.90;99.90;;;;;;5072982;28;20515;-72
2023/07/15 04:43:22;;;;;;;0.30;0.30;;;18.90;99.90;;;;;;5073448;28;20065;-74
2023/07/15 04:45:49;;;;;;;0.30;0.30;;;19.00;99.90;;;;;;5073262;28;20036;-72
2023/07/15 04:48:14;;;;;;;0.40;0.40;;;19.00;99.90;;;;;;5073295;28;20051;-73
2023/07/15 04:50:40;;;;;;;0.30;0.30;;;19.00;99.90;;;;;;5071686;28;20048;-71
2023/07/15 04:53:06;;;;;;;0.20;0.20;;;19.10;99.90;;;;;;5073114;28;20422;-71
2023/07/15 04:55:32;;;;;;;0.20;0.20;;;19.10;99.90;;;;;;5073232;28;20049;-70
2023/07/15 04:57:58;;;;;;;0.20;0.20;;;19.10;99.90;;;;;;5073443;28;20147;-70
2023/07/15 05:00:23;;;;;;;0.30;0.30;;;19.20;99.90;;;;;;5073121;28;20037;-70
2023/07/15 05:02:49;;;;;;;0.40;0.40;;;19.30;99.90;;;;;;5072961;28;20530;-71
2023/07/15 05:05:15;;;;;;;0.30;0.30;;;19.30;99.90;;;;;;5072964;28;20044;-71
2023/07/15 05:07:41;;;;;;;0.20;0.20;;;19.40;99.90;;;;;;5073429;28;20594;-71
2023/07/15 05:10:07;;;;;;;0.27;0.27;;;19.50;99.90;;;;;;5073111;28;20329;-71
2023/07/15 05:12:33;;;;;;;0.20;0.20;;;19.60;99.90;;;;;;5073229;28;20087;-71
2023/07/15 05:14:58;;;;;;;0.30;0.30;;;19.60;99.90;;;;;;5073575;28;20084;-71
2023/07/15 05:17:26;;;;;;;0.50;0.50;;;19.70;99.90;;;;;;5076236;28;20121;-71
2023/07/15 05:19:52;;;;;;;0.45;0.28;;;19.70;99.90;;;;;;5076509;28;20398;-71
2023/07/15 05:22:18;;;;;;;0.40;0.40;;;19.80;99.90;;;;;;5076490;28;20078;-71
2023/07/15 05:24:44;;;;;;;0.30;0.30;;;19.80;99.90;;;;;;5076418;28;20281;-71
2023/07/15 05:27:10;;;;;;;0.43;0.40;;;19.90;99.90;;;;;;5076397;28;20124;-71
2023/07/15 05:29:37;;;;;;;0.32;0.32;;;20.00;99.90;;;;;;5076236;28;20123;-71
2023/07/15 05:32:03;;;;;;;0.30;0.30;;;20.20;99.90;;;;;;5075106;28;20389;-71
2023/07/15 05:34:29;;;;;;;0.20;0.20;;;20.40;99.90;;;;;;5076285;28;20032;-71
2023/07/15 05:36:55;;;;;;;0.20;0.20;;;20.50;99.90;;;;;;5076856;28;20098;-71
2023/07/15 05:39:20;;;;;;;0.20;0.20;;;20.70;99.90;;;;;;5076295;28;20477;-72
2023/07/15 05:41:46;;;;;;;0.50;0.50;;;20.90;99.90;;;;;;5076041;28;20041;-72
2023/07/15 05:44:11;;;;;;;0.37;0.30;;;21.10;99.90;;;;;;5076033;28;20120;-71
2023/07/15 05:46:37;;;;;;;0.20;0.20;;;21.40;99.90;;;;;;5076076;28;20041;-71
2023/07/15 05:49:04;;;;;;;0.20;0.20;;;21.60;99.90;;;;;;5076029;28;20042;-70
2023/07/15 05:51:31;;;;;;;0.32;0.32;;;21.90;99.90;;;;;;5075970;28;20029;-71
2023/07/15 05:53:57;;;;;;;0.20;0.20;;;22.10;99.90;;;;;;5076036;28;20421;-71
2023/07/15 05:56:23;;;;;;;0.20;0.20;;;22.30;99.90;;;;;;5075894;28;20076;-74
2023/07/15 05:58:50;;;;;;;0.20;0.20;;;22.50;99.90;;;;;;5075993;28;20029;-75
2023/07/15 06:01:16;;;;;;;0.30;0.30;;;22.70;99.90;;;;;;5075689;28;20384;-72
2023/07/15 06:03:41;;;;;;;0.40;0.40;;;23.00;99.90;;;;;;5075680;28;20040;-72
2023/07/15 06:06:07;;;;;;;0.20;0.20;;;23.20;99.90;;;;;;5075719;28;20043;-71
2023/07/15 06:08:36;;;;;;;0.30;0.30;;;23.30;99.90;;;;;;5075668;28;20040;-72
2023/07/15 06:11:01;;;;;;;0.20;0.20;;;23.60;99.90;;;;;;5075530;28;20610;-71
2023/07/15 06:13:27;;;;;;;0.30;0.30;;;23.70;99.90;;;;;;5075515;28;20488;-74
2023/07/15 06:15:53;;;;;;;0.67;0.67;;;23.80;99.90;;;;;;5075724;28;20044;-71
2023/07/15 06:18:19;;;;;;;0.27;0.27;;;23.90;99.90;;;;;;5075019;28;20044;-72
2023/07/15 06:20:46;;;;;;;0.20;0.20;;;24.00;99.90;;;;;;5075349;28;20133;-71
2023/07/15 06:23:13;;;;;;;0.20;0.20;;;24.20;99.90;;;;;;5075353;28;20037;-72
2023/07/15 06:25:41;;;;;;;0.30;0.30;;;24.30;99.90;;;;;;5074032;28;20044;-76
2023/07/15 06:28:07;;;;;;;0.30;0.30;;;24.50;99.90;;;;;;5075347;28;20032;-73
2023/07/15 06:30:33;;;;;;;0.30;0.30;;;24.50;99.90;;;;;;5075214;28;20032;-75
2023/07/15 06:32:58;;;;;;;0.30;0.30;;;24.60;99.90;;;;;;5075161;28;20044;-74
2023/07/15 06:35:24;;;;;;;0.30;0.30;;;24.60;99.90;;;;;;5075148;28;20447;-77
2023/07/15 06:37:50;;;;;;;0.30;0.30;;;24.60;99.90;;;;;;5075083;28;20037;-73
2023/07/15 06:40:17;;;;;;;0.28;0.28;;;24.60;99.90;;;;;;5075234;28;20380;-74
2023/07/15 06:42:46;;;;;;;0.52;0.40;;;24.60;99.90;;;;;;5074617;28;20457;-77
2023/07/15 06:45:13;;;;;;;0.50;0.50;;;24.50;99.90;;;;;;5075095;28;20036;-75
2023/07/15 06:47:39;;;;;;;0.20;0.20;;;24.40;99.90;;;;;;5074838;28;20116;-76
2023/07/15 06:50:05;;;;;;;0.40;0.40;;;24.40;99.90;;;;;;5074834;28;20040;-75
2023/07/15 06:52:31;;;;;;;0.28;0.28;;;24.40;99.90;;;;;;5073811;28;20466;-75
2023/07/15 06:54:57;;;;;;;0.50;0.50;;;24.40;99.90;;;;;;5074568;28;20119;-74
2023/07/15 06:57:22;;;;;;;0.67;0.43;;;24.40;99.90;;;;;;5074538;28;20040;-72
2023/07/15 06:59:48;;;;;;;0.20;0.20;;;24.50;99.90;;;;;;5074631;28;20040;-72
2023/07/15 07:02:14;;;;;;;0.40;0.40;;;24.50;99.90;;;;;;5074540;28;20089;-71
2023/07/15 07:04:40;;;;;;;1.70;0.53;;;24.60;99.90;;;;;;5074600;28;20526;-73
2023/07/15 07:07:05;;;;;;;0.20;0.20;;;24.60;99.90;;;;;;5074474;28;20310;-70
2023/07/15 07:09:31;;;;;;;0.20;0.20;;;24.70;99.90;;;;;;5074392;28;20072;-70
2023/07/15 07:11:58;;;;;;;0.20;0.20;;;24.80;99.90;;;;;;5074279;28;20048;-70
2023/07/15 07:14:23;;;;;;;0.30;0.30;;;24.90;99.90;;;;;;5074327;28;20076;-70
2023/07/15 07:16:49;;;;;;;0.30;0.30;;;25.00;99.90;;;;;;5074048;28;20090;-69
2023/07/15 07:19:15;;;;;;;0.47;0.47;;;25.10;99.90;;;;;;5073944;28;20493;-70
2023/07/15 07:21:42;;;;;;;0.20;0.20;;;25.10;99.90;;;;;;5074093;28;20044;-71
2023/07/15 07:24:09;;;;;;;0.20;0.20;;;25.20;99.90;;;;;;5074096;28;20036;-71
2023/07/15 07:26:36;;;;;;;0.25;0.25;;;25.20;99.90;;;;;;5073948;28;20538;-72
2023/07/15 07:29:02;;;;;;;0.20;0.20;;;25.20;99.90;;;;;;5073954;28;20040;-71
2023/07/15 07:31:28;;;;;;;0.20;0.20;;;25.20;99.90;;;;;;5074037;28;20094;-71
2023/07/15 07:33:54;;;;;;;0.20;0.20;;;25.30;99.90;;;;;;5074516;28;20048;-70
2023/07/15 07:36:19;;;;;;;0.20;0.20;;;25.40;99.90;;;;;;5073920;28;20036;-74
2023/07/15 07:38:45;;;;;;;0.52;0.25;;;25.40;99.90;;;;;;5073668;28;20275;-70
2023/07/15 07:41:12;;;;;;;0.20;0.20;;;25.50;99.90;;;;;;5073949;28;20076;-70
2023/07/15 07:43:39;;;;;;;0.20;0.20;;;25.60;99.90;;;;;;5073917;28;20372;-71
2023/07/15 07:46:07;;;;;;;0.20;0.20;;;25.80;99.90;;;;;;5072282;28;20044;-70
2023/07/15 07:48:33;;;;;;;0.20;0.20;;;25.80;99.90;;;;;;5073618;28;20071;-70
2023/07/15 07:51:00;;;;;;;0.20;0.20;;;25.80;99.90;;;;;;5074379;28;20497;-71
2023/07/15 07:53:25;;;;;;;0.30;0.30;;;25.80;99.90;;;;;;5073607;28;20119;-72
2023/07/15 07:55:51;;;;;;;0.20;0.20;;;25.90;99.90;;;;;;5074007;28;20127;-70
2023/07/15 07:58:17;;;;;;;0.20;0.20;;;26.00;99.90;;;;;;5073567;28;20750;-73
2023/07/15 08:00:43;;;;;;;0.20;0.20;;;26.00;99.90;;;;;;5073646;28;20469;-73
2023/07/15 08:03:09;;;;;;;0.20;0.20;;;25.90;99.90;;;;;;5073243;28;20094;-73
2023/07/15 08:05:41;;;;;;;0.40;0.40;;;26.00;99.90;;;;;;5073380;28;20036;-75
2023/07/15 08:08:07;;;;;;;0.20;0.20;;;26.00;99.90;;;;;;5073594;28;20036;-77
2023/07/15 08:10:32;;;;;;;0.30;0.30;;;26.10;99.90;;;;;;5073415;28;20396;-74
2023/07/15 08:12:58;;;;;;;0.20;0.20;;;26.10;99.90;;;;;;5073715;28;20047;-76
2023/07/15 08:15:23;;;;;;;0.20;0.20;;;26.20;99.90;;;;;;5072233;28;20040;-75
2023/07/15 08:17:49;;;;;;;0.20;0.20;;;26.20;99.90;;;;;;5073395;28;20593;-74
2023/07/15 08:20:15;;;;;;;0.40;0.40;;;26.20;99.90;;;;;;5073146;28;20052;-76
2023/07/15 08:22:40;;;;;;;0.20;0.20;;;26.20;99.90;;;;;;5089121;28;20036;-76
2023/07/15 08:25:06;;;;;;;0.30;0.30;;;26.20;99.90;;;;;;5073358;28;20439;-76
2023/07/15 08:27:32;;;;;;;0.30;0.30;;;26.30;99.90;;;;;;5073223;28;20044;-75
2023/07/15 08:29:57;;;;;;;0.40;0.40;;;26.40;99.90;;;;;;5072329;28;20036;-75
2023/07/15 08:32:23;;;;;;;0.20;0.20;;;26.40;99.90;;;;;;5073258;28;20045;-77
2023/07/15 08:35:04;;;;;;;0.20;0.20;;;26.40;99.90;;;;;;5073441;28;20123;-73
2023/07/15 08:37:30;;;;;;;0.30;0.30;;;26.40;99.90;;;;;;5073257;28;20083;-74
2023/07/15 08:39:56;;;;;;;0.20;0.20;;;26.40;99.90;;;;;;5073246;28;20103;-74
2023/07/15 08:42:23;;;;;;;0.20;0.20;;;26.50;99.90;;;;;;5073338;28;20476;-75
2023/07/15 08:44:50;;;;;;;0.28;0.28;;;26.50;99.90;;;;;;5071876;28;20040;-71
2023/07/15 08:47:19;;;;;;;0.20;0.20;;;26.50;99.90;;;;;;5073219;28;20033;-72
2023/07/15 08:49:45;;;;;;;0.90;0.30;;;26.60;99.90;;;;;;5072630;28;20456;-70
2023/07/15 08:52:12;;;;;;;0.20;0.20;;;26.70;99.90;;;;;;5076890;28;20472;-71
2023/07/15 08:54:38;;;;;;;;;;;26.70;99.90;;;;;;5077419;28;20048;-71
2023/07/15 08:57:06;;;;;;;0.20;0.20;;;26.80;99.90;;;;;;5077062;28;19939;-71
2023/07/15 08:59:32;;;;;;;0.20;0.20;;;27.00;99.90;;;;;;5076624;28;20040;-71
2023/07/15 09:01:59;;;;;;;0.30;0.30;;;27.00;99.90;;;;;;5076845;28;20047;-71
2023/07/15 09:04:25;;;;;;;0.20;0.20;;;26.90;99.90;;;;;;5076775;28;20045;-70
2023/07/15 09:06:54;;;;;;;0.20;0.20;;;26.70;99.90;;;;;;5076511;28;20405;-70
2023/07/15 09:09:34;;;;;;;0.22;0.22;;;26.60;99.90;;;;;;5076761;28;20045;-70
2023/07/15 09:12:02;;;;;;;0.20;0.20;;;26.60;99.90;;;;;;5077095;28;20044;-71
2023/07/15 09:14:28;;;;;;;0.20;0.20;;;26.70;99.90;;;;;;5076597;28;20040;-71
2023/07/15 09:16:55;;;;;;;0.52;0.30;;;26.80;99.90;;;;;;5076094;28;20041;-71
2023/07/15 09:19:22;;;;;;;0.40;0.40;;;26.90;99.90;;;;;;5076558;28;20372;-71
2023/07/15 09:21:53;;;;;;;0.20;0.20;;;26.90;99.90;;;;;;5076636;28;20037;-71
2023/07/15 09:24:19;;;;;;;0.30;0.30;;;27.00;99.90;;;;;;5076407;28;20048;-71
2023/07/15 09:26:52;;;;;;;0.57;0.57;;;26.90;99.90;;;;;;5076088;28;20047;-71
2023/07/15 09:29:22;;;;;;;0.20;0.20;;;27.00;99.90;;;;;;5076649;28;20056;-72
2023/07/15 09:31:47;;;;;;;0.20;0.20;;;27.20;99.90;;;;;;5075780;28;20094;-71
2023/07/15 09:34:13;;;;;;;0.20;0.20;;;27.30;99.90;;;;;;5076297;28;20040;-70
2023/07/15 09:36:39;;;;;;;0.20;0.20;;;27.30;99.90;;;;;;5076267;28;20086;-70
2023/07/15 09:39:12;;;;;;;0.20;0.20;;;27.40;99.90;;;;;;5076146;28;20062;-70
2023/07/15 09:41:39;;;;;;;0.60;0.20;;;27.50;99.90;;;;;;5076259;28;20314;-70
2023/07/15 09:44:05;;;;;;;0.30;0.30;;;27.40;99.90;;;;;;5076014;28;20048;-71
2023/07/15 09:46:31;;;;;;;0.23;0.23;;;27.40;99.90;;;;;;5076093;28;20056;-71
2023/07/15 09:48:57;;;;;;;0.20;0.20;;;27.30;99.90;;;;;;5075924;28;20271;-74
2023/07/15 09:51:24;;;;;;;0.30;0.30;;;27.30;99.90;;;;;;5076036;28;20534;-72
2023/07/15 09:53:56;;;;;;;0.50;0.50;;;27.30;99.90;;;;;;5075494;28;20047;-74
2023/07/15 09:56:36;;;;;;;0.40;0.40;;;27.40;99.90;;;;;;5074427;28;20045;-70
2023/07/15 09:59:13;;;;;;;0.25;0.25;;;27.60;99.90;;;;;;5075966;28;20076;-70
2023/07/15 10:01:53;;;;;;;0.20;0.20;;;27.60;99.90;;;;;;5075331;28;20041;-72
2023/07/15 10:04:25;;;;;;;0.30;0.30;;;27.70;99.90;;;;;;5075875;28;20040;-70
2023/07/15 10:06:51;;;;;;;0.20;0.20;;;27.60;99.90;;;;;;5075622;28;20086;-70
2023/07/15 10:09:18;;;;;;;;;;;27.60;99.90;;;;;;5076092;28;20040;-71
2023/07/15 10:11:44;;;;;;;0.30;0.30;;;27.50;99.90;;;;;;5075593;28;19916;-72
2023/07/15 10:14:10;;;;;;;0.20;0.20;;;27.40;99.90;;;;;;5074428;28;20085;-72
2023/07/15 10:16:36;;;;;;;0.20;0.20;;;27.30;99.90;;;;;;5075351;28;20051;-71
2023/07/15 10:19:02;;;;;;;;;;;27.20;99.90;;;;;;5075533;28;20048;-71
2023/07/15 10:21:28;;;;;;;0.30;0.30;;;27.10;99.90;;;;;;5075265;28;19939;-72
2023/07/15 10:24:16;;;;;;;0.20;0.20;;;26.90;99.90;;;;;;5075294;28;20469;-72
2023/07/15 10:26:51;;;;;;;1.25;0.50;;;26.80;99.90;;;;;;5081954;28;20536;-72
2023/07/15 10:29:16;;;;;;;0.20;0.20;;;26.70;99.90;;;;;;5095053;28;20047;-71
2023/07/15 10:31:42;;;;;;;0.20;0.20;;;26.70;99.90;;;;;;5095456;28;20032;-71
2023/07/15 10:34:12;;;;;;;0.20;0.20;;;26.70;99.90;;;;;;5095331;28;20310;-72
2023/07/15 10:36:47;;;;;;;0.20;0.20;;;26.70;99.90;;;;;;5095292;28;20051;-73
2023/07/15 10:39:20;;;;;;;0.20;0.20;;;26.90;99.90;;;;;;5095247;28;20036;-71
2023/07/15 10:41:51;;;;;;;0.32;0.32;;;26.80;99.90;;;;;;5095150;28;20051;-72
2023/07/15 10:44:17;;;;;;;0.20;0.20;;;26.60;99.90;;;;;;5095144;28;20062;-71
2023/07/15 10:46:47;;;;;;;;;;;26.60;99.90;;;;;;5095363;28;20473;-71
2023/07/15 10:49:13;;;;;;;0.22;0.22;;;26.50;99.90;;;;;;5095173;28;19916;-71
2023/07/15 10:51:39;;;;;;;0.20;0.20;;;26.50;99.90;;;;;;5095297;28;20097;-71
2023/07/15 10:54:07;;;;;;;0.70;0.50;;;26.30;99.90;;;;;;5096049;28;20527;-70
2023/07/15 10:56:33;;;;;;;0.32;0.30;;;26.20;99.90;;;;;;5096244;28;20051;-71
2023/07/15 10:58:59;;;;;;;;;;;26.20;99.90;;;;;;5096021;28;20056;-73
2023/07/15 11:01:25;;;;;;;0.20;0.20;;;26.20;99.90;;;;;;5094645;28;19982;-72
2023/07/15 11:03:51;;;;;;;0.20;0.20;;;26.30;99.90;;;;;;5094736;28;20115;-73
2023/07/15 11:06:16;;;;;;;0.27;0.27;;;26.50;99.90;;;;;;5094864;28;20515;-76
2023/07/15 11:08:44;;;;;;;0.22;0.22;;;26.70;99.90;;;;;;5093598;28;20044;-73
2023/07/15 11:11:10;;;;;;;0.63;0.40;;;26.90;99.90;;;;;;5094697;28;20044;-73
2023/07/15 11:13:37;;;;;;;;;;;27.00;99.90;;;;;;5094323;28;20055;-71
2023/07/15 11:16:03;;;;;;;0.20;0.20;;;27.00;99.90;;;;;;5093570;28;20248;-72
2023/07/15 11:18:30;;;;;;;0.20;0.20;;;26.80;99.90;;;;;;5094631;28;20048;-72
2023/07/15 11:20:58;;;;;;;0.22;0.22;;;26.70;99.90;;;;;;5094351;28;20042;-73
2023/07/15 11:23:24;;;;;;;0.20;0.20;;;26.50;99.90;;;;;;5094449;28;20032;-72
2023/07/15 11:25:50;;;;;;;0.38;0.38;;;26.50;99.90;;;;;;5094429;28;20370;-72
2023/07/15 11:28:17;;;;;;;1.40;0.63;;;26.30;99.90;;;;;;5094345;28;20043;-72
2023/07/15 11:30:46;;;;;;;0.20;0.20;;;26.20;99.90;;;;;;5094358;28;20036;-71
2023/07/15 11:33:12;;;;;;;0.30;0.30;;;26.10;99.90;;;;;;5094220;28;20040;-72
2023/07/15 11:35:39;;;;;;;0.28;0.28;;;26.10;99.90;;;;;;5094205;28;20047;-70
2023/07/15 11:38:10;;;;;;;0.20;0.20;;;25.90;99.90;;;;;;5094504;28;20044;-70
2023/07/15 11:40:37;;;;;;;0.30;0.30;;;25.80;99.90;;;;;;5094320;28;20124;-71
2023/07/15 11:43:06;;;;;;;0.20;0.20;;;25.70;99.90;;;;;;5093858;28;20101;-71
2023/07/15 11:45:32;;;;;;;0.20;0.20;;;25.60;99.90;;;;;;5093902;28;20036;-71
2023/07/15 11:47:58;;;;;;;0.20;0.20;;;25.60;99.90;;;;;;5094016;28;20096;-71
2023/07/15 11:50:26;;;;;;;0.20;0.20;;;25.60;99.90;;;;;;5094074;28;20040;-71
2023/07/15 11:52:51;;;;;;;0.20;0.20;;;25.60;99.90;;;;;;5093902;28;20048;-72
2023/07/15 11:55:24;;;;;;;0.20;0.20;;;25.60;99.90;;;;;;5093685;28;20373;-71
2023/07/15 11:57:50;;;;;;;0.20;0.20;;;25.60;99.90;;;;;;5094371;28;20434;-72
2023/07/15 12:00:27;;;;;;;0.30;0.30;;;25.50;99.90;;;;;;5093893;28;20136;-72
2023/07/15 12:02:53;;;;;;;0.20;0.20;;;25.50;99.90;;;;;;5092497;28;20032;-78
2023/07/15 12:05:18;;;;;;;0.30;0.30;;;25.50;99.90;;;;;;5093437;28;20146;-71
2023/07/15 12:07:52;;;;;;;0.30;0.30;;;25.50;99.90;;;;;;5092765;28;20475;-70
2023/07/15 12:10:19;;;;;;;0.22;0.22;;;25.50;99.90;;;;;;5092101;28;20331;-69
2023/07/15 12:12:46;;;;;;;0.20;0.20;;;25.50;99.90;;;;;;5092571;28;20040;-72
2023/07/15 12:15:16;;;;;;;0.30;0.30;;;25.50;99.90;;;;;;5093553;28;20150;-71
2023/07/15 12:17:42;;;;;;;0.30;0.30;;;25.50;99.90;;;;;;5093468;28;20127;-71
2023/07/15 12:20:09;;;;;;;0.20;0.20;;;25.50;99.90;;;;;;5092334;28;20372;-69
2023/07/15 12:22:35;;;;;;;0.20;0.20;;;25.60;99.90;;;;;;5093049;28;20131;-70
2023/07/15 12:25:00;;;;;;;0.20;0.20;;;25.60;99.90;;;;;;5097892;28;20075;-69
2023/07/15 12:27:26;;;;;;;0.30;0.30;;;25.70;99.90;;;;;;5100635;28;20105;-69
2023/07/15 12:29:52;;;;;;;0.30;0.30;;;25.70;99.90;;;;;;5100451;28;20090;-75
2023/07/15 12:32:17;;;;;;;0.20;0.20;;;25.80;99.90;;;;;;5100035;28;20083;-70
2023/07/15 12:34:43;;;;;;;0.30;0.30;;;25.90;99.90;;;;;;5099127;28;20274;-73
2023/07/15 12:37:09;;;;;;;0.23;0.23;;;25.90;99.90;;;;;;5099963;28;20047;-71
2023/07/15 12:39:34;;;;;;;1.70;0.37;;;25.90;99.90;;;;;;5100229;28;20384;-74
2023/07/15 12:42:00;;;;;;;0.20;0.20;;;25.70;99.90;;;;;;5100164;28;20123;-72
2023/07/15 12:44:25;;;;;;;0.20;0.20;;;25.60;99.90;;;;;;5100403;28;20048;-74
2023/07/15 12:46:51;;;;;;;0.20;0.20;;;25.60;99.90;;;;;;5100204;28;20051;-75
2023/07/15 12:49:17;;;;;;;0.40;0.40;;;25.50;99.90;;;;;;5100040;28;20062;-73